createdAt,value
2023-02-12T00:00:17.534Z,42.00
2023-02-12T00:02:45.324Z,48.40
2023-02-12T00:05:13.179Z,44.67
2023-02-12T00:07:40.985Z,40.80
2023-02-12T00:10:11.255Z,43.10
2023-02-12T00:12:39.151Z,37.67
2023-02-12T00:15:08.001Z,42.13
2023-02-12T00:17:35.992Z,35.13
2023-02-12T00:20:04.345Z,38.57
2023-02-12T00:22:32.276Z,37.67
2023-02-12T00:25:00.142Z,39.03
2023-02-12T00:27:29.488Z,40.00
2023-02-12T00:29:57.488Z,50.00
2023-02-12T00:32:25.376Z,39.07
2023-02-12T00:34:53.209Z,32.93
2023-02-12T00:37:21.003Z,30.70
2023-02-12T00:39:48.864Z,35.53
2023-02-12T00:42:16.703Z,36.30
2023-02-12T00:44:45.962Z,40.83
2023-02-12T00:47:13.865Z,37.70
2023-02-12T00:49:42.879Z,40.17
2023-02-12T00:52:10.730Z,40.50
2023-02-12T00:54:38.805Z,37.53
2023-02-12T00:57:06.824Z,45.10
2023-02-12T00:59:36.374Z,45.27
2023-02-12T01:02:06.350Z,34.10
2023-02-12T01:04:34.175Z,34.87
2023-02-12T01:07:02.060Z,36.17
2023-02-12T01:09:30.022Z,42.30
2023-02-12T01:11:57.910Z,30.67
2023-02-12T01:14:25.711Z,32.87
2023-02-12T01:16:53.931Z,30.43
2023-02-12T01:19:23.123Z,30.40
2023-02-12T01:21:51.403Z,29.33
2023-02-12T01:24:19.273Z,29.73
2023-02-12T01:26:47.160Z,30.43
2023-02-12T01:29:14.971Z,34.83
2023-02-12T01:31:43.240Z,26.27
2023-02-12T01:34:12.300Z,38.90
2023-02-12T01:36:41.478Z,45.30
2023-02-12T01:39:12.164Z,38.00
2023-02-12T01:41:43.341Z,42.63
2023-02-12T01:44:17.416Z,39.77
2023-02-12T01:46:48.975Z,47.27
2023-02-12T01:49:22.391Z,45.13
2023-02-12T01:51:55.215Z,43.10
2023-02-12T01:54:25.727Z,45.37
2023-02-12T01:56:54.468Z,41.90
2023-02-12T01:59:23.226Z,44.77
2023-02-12T02:01:51.207Z,45.13
2023-02-12T02:04:26.755Z,45.97
2023-02-12T02:06:59.716Z,39.93
2023-02-12T02:09:29.239Z,39.10
2023-02-12T02:12:16.276Z,39.77
2023-02-12T02:14:45.675Z,37.10
2023-02-12T02:17:47.705Z,39.73
2023-02-12T02:20:45.373Z,31.93
2023-02-12T02:23:45.326Z,33.40
2023-02-12T02:26:34.528Z,33.23
2023-02-12T02:29:20.699Z,31.23
2023-02-12T02:31:59.533Z,28.43
2023-02-12T02:34:33.109Z,25.47
2023-02-12T02:37:09.375Z,22.60
2023-02-12T02:39:41.211Z,19.37
2023-02-12T02:42:12.077Z,16.93
2023-02-12T02:44:44.401Z,15.80
2023-02-12T02:47:16.108Z,17.37
2023-02-12T02:49:47.333Z,14.63
2023-02-12T02:52:19.838Z,12.43
2023-02-12T02:54:51.743Z,12.67
2023-02-12T02:57:25.749Z,16.03
2023-02-12T02:59:58.999Z,13.47
2023-02-12T03:02:32.282Z,12.13
2023-02-12T03:05:05.219Z,12.00
2023-02-12T03:07:37.806Z,13.17
2023-02-12T03:10:12.725Z,13.47
2023-02-12T03:12:45.741Z,18.07
2023-02-12T03:15:20.295Z,14.07
2023-02-12T03:17:50.922Z,10.27
2023-02-12T03:20:23.421Z,9.73
2023-02-12T03:22:54.933Z,9.73
2023-02-12T03:25:27.817Z,10.80
2023-02-12T03:28:02.685Z,12.77
2023-02-12T03:30:41.241Z,11.60
2023-02-12T03:33:19.392Z,11.67
2023-02-12T03:35:57.271Z,12.70
2023-02-12T03:38:35.432Z,14.30
2023-02-12T03:41:09.981Z,13.47
2023-02-12T03:43:50.213Z,14.83
2023-02-12T03:46:23.657Z,15.83
2023-02-12T03:48:59.968Z,16.57
2023-02-12T03:51:32.871Z,19.03
2023-02-12T03:54:02.437Z,18.87
2023-02-12T03:56:35.344Z,16.67
2023-02-12T03:59:04.485Z,13.53
2023-02-12T04:01:34.214Z,14.17
2023-02-12T04:04:06.715Z,13.53
2023-02-12T04:06:35.062Z,15.17
2023-02-12T04:09:06.183Z,15.57
2023-02-12T04:11:46.494Z,15.10
2023-02-12T04:14:23.573Z,14.27
2023-02-12T04:16:58.775Z,20.23
2023-02-12T04:19:35.553Z,20.97
2023-02-12T04:22:16.016Z,25.03
2023-02-12T04:24:53.369Z,25.23
2023-02-12T04:27:26.653Z,25.77
2023-02-12T04:30:00.430Z,27.87
2023-02-12T04:32:38.336Z,27.77
2023-02-12T04:35:12.732Z,27.90
2023-02-12T04:37:45.943Z,27.87
2023-02-12T04:40:15.716Z,29.87
2023-02-12T04:42:44.553Z,30.37
2023-02-12T04:45:13.412Z,31.00
2023-02-12T04:47:41.379Z,32.40
2023-02-12T04:50:11.623Z,39.00
2023-02-12T04:52:39.511Z,34.53
2023-02-12T04:55:07.844Z,37.17
2023-02-12T04:57:35.934Z,38.97
2023-02-12T05:00:05.714Z,40.53
2023-02-12T05:02:35.013Z,34.03
2023-02-12T05:05:02.897Z,37.83
2023-02-12T05:07:32.209Z,44.90
2023-02-12T05:10:00.315Z,34.50
2023-02-12T05:12:28.147Z,31.17
2023-02-12T05:14:56.023Z,30.27
2023-02-12T05:17:24.363Z,37.40
2023-02-12T05:19:52.442Z,32.63
2023-02-12T05:22:20.275Z,28.17
2023-02-12T05:24:49.597Z,36.90
2023-02-12T05:27:17.402Z,35.93
2023-02-12T05:29:45.316Z,31.20
2023-02-12T05:32:13.291Z,27.23
2023-02-12T05:34:41.476Z,30.37
2023-02-12T05:37:09.278Z,30.30
2023-02-12T05:39:37.153Z,36.87
2023-02-12T05:42:06.453Z,37.03
2023-02-12T05:44:34.365Z,36.43
2023-02-12T05:47:02.179Z,29.40
2023-02-12T05:49:30.144Z,49.70
2023-02-12T05:51:57.997Z,56.20
2023-02-12T05:54:25.949Z,64.40
2023-02-12T05:56:53.765Z,69.37
2023-02-12T05:59:24.564Z,69.53
2023-02-12T06:01:53.844Z,84.53
2023-02-12T06:04:23.983Z,47.30
2023-02-12T06:06:52.385Z,56.13
2023-02-12T06:09:20.455Z,43.63
2023-02-12T06:11:48.564Z,55.23
2023-02-12T06:14:20.441Z,60.00
2023-02-12T06:16:51.538Z,60.03
2023-02-12T06:19:20.266Z,66.17
2023-02-12T06:21:48.403Z,63.63
2023-02-12T06:24:17.769Z,94.07
2023-02-12T06:26:46.199Z,97.23
2023-02-12T06:29:14.277Z,60.73
2023-02-12T06:31:42.421Z,86.37
2023-02-12T06:34:14.396Z,70.40
2023-02-12T06:36:44.393Z,73.77
2023-02-12T06:39:13.614Z,68.97
2023-02-12T06:41:42.049Z,75.90
2023-02-12T06:44:11.408Z,85.80
2023-02-12T06:46:39.641Z,63.47
2023-02-12T06:49:07.586Z,64.10
2023-02-12T06:51:38.434Z,65.40
2023-02-12T06:54:06.547Z,60.33
2023-02-12T06:56:34.358Z,51.37
2023-02-12T06:59:02.249Z,79.90
2023-02-12T07:01:31.592Z,63.77
2023-02-12T07:04:02.087Z,79.90
2023-02-12T07:06:31.724Z,83.20
2023-02-12T07:09:01.231Z,112.97
2023-02-12T07:11:31.130Z,78.63
2023-02-12T07:13:59.397Z,71.80
2023-02-12T07:16:28.175Z,55.53
2023-02-12T07:18:56.122Z,43.13
2023-02-12T07:21:24.066Z,81.47
2023-02-12T07:23:53.791Z,74.07
2023-02-12T07:26:23.344Z,81.00
2023-02-12T07:28:52.052Z,84.57
2023-02-12T07:31:22.571Z,82.33
2023-02-12T07:33:54.602Z,82.97
2023-02-12T07:36:22.889Z,75.73
2023-02-12T07:38:51.160Z,74.83
2023-02-12T07:41:22.591Z,95.50
2023-02-12T07:43:55.180Z,92.77
2023-02-12T07:46:29.639Z,130.93
2023-02-12T07:48:58.054Z,83.50
2023-02-12T07:51:26.810Z,72.37
2023-02-12T07:53:55.256Z,87.27
2023-02-12T07:56:25.823Z,86.30
2023-02-12T07:58:54.636Z,112.47
2023-02-12T08:01:26.440Z,91.17
2023-02-12T08:03:55.097Z,116.67
2023-02-12T08:06:25.455Z,80.63
2023-02-12T08:08:54.059Z,91.13
2023-02-12T08:11:22.495Z,101.63
2023-02-12T08:13:52.548Z,86.47
2023-02-12T08:16:22.163Z,87.83
2023-02-12T08:18:50.462Z,82.00
2023-02-12T08:21:20.066Z,88.40
2023-02-12T08:23:50.564Z,76.57
2023-02-12T08:26:21.720Z,68.53
2023-02-12T08:28:54.237Z,94.43
2023-02-12T08:31:24.122Z,71.70
2023-02-12T08:33:53.752Z,80.77
2023-02-12T08:36:23.511Z,77.93
2023-02-12T08:38:51.812Z,78.17
2023-02-12T08:41:23.260Z,87.90
2023-02-12T08:43:54.837Z,88.17
2023-02-12T08:46:24.307Z,73.87
2023-02-12T08:48:54.983Z,96.17
2023-02-12T08:51:25.271Z,73.73
2023-02-12T08:53:56.221Z,74.87
2023-02-12T08:56:25.273Z,66.87
2023-02-12T08:58:54.589Z,62.97
2023-02-12T09:01:25.036Z,60.63
2023-02-12T09:03:53.795Z,59.33
2023-02-12T09:06:23.648Z,58.67
2023-02-12T09:08:52.245Z,46.80
2023-02-12T09:11:24.281Z,56.97
2023-02-12T09:13:52.192Z,55.00
2023-02-12T09:16:21.378Z,50.90
2023-02-12T09:18:49.246Z,49.97
2023-02-12T09:21:17.841Z,53.83
2023-02-12T09:23:45.833Z,43.53
2023-02-12T09:26:16.065Z,51.00
2023-02-12T09:28:44.191Z,44.47
2023-02-12T09:31:14.613Z,54.13
2023-02-12T09:33:46.176Z,49.57
2023-02-12T09:36:17.866Z,56.07
2023-02-12T09:38:45.871Z,42.07
2023-02-12T09:41:38.954Z,40.60
2023-02-12T09:44:11.585Z,50.03
2023-02-12T09:46:46.837Z,44.97
2023-02-12T09:49:24.229Z,43.77
2023-02-12T09:51:54.811Z,47.53
2023-02-12T09:54:26.883Z,47.70
2023-02-12T09:56:58.354Z,45.13
2023-02-12T09:59:35.004Z,48.17
2023-02-12T10:02:03.164Z,51.87
2023-02-12T10:04:32.408Z,43.20
2023-02-12T10:07:05.931Z,56.83
2023-02-12T10:09:48.016Z,44.10
2023-02-12T10:12:24.335Z,50.30
2023-02-12T10:15:00.943Z,48.00
2023-02-12T10:17:39.083Z,48.73
2023-02-12T10:20:32.408Z,47.03
2023-02-12T10:23:09.437Z,48.23
2023-02-12T10:25:45.587Z,48.43
2023-02-12T10:28:16.999Z,43.57
2023-02-12T10:30:52.234Z,53.97
2023-02-12T10:33:26.090Z,52.20
2023-02-12T10:36:00.179Z,48.43
2023-02-12T10:38:32.650Z,40.33
2023-02-12T10:41:01.886Z,43.00
2023-02-12T10:43:30.534Z,39.23
2023-02-12T10:45:58.878Z,39.10
2023-02-12T10:48:32.607Z,44.40
2023-02-12T10:51:19.320Z,41.07
2023-02-12T10:53:48.429Z,42.33
2023-02-12T10:56:19.995Z,39.73
2023-02-12T10:58:56.773Z,37.43
2023-02-12T11:01:28.102Z,33.97
2023-02-12T11:03:57.264Z,33.07
2023-02-12T11:06:29.098Z,34.97
2023-02-12T11:08:58.078Z,28.27
2023-02-12T11:11:30.589Z,31.40
2023-02-12T11:14:01.147Z,34.13
2023-02-12T11:16:34.817Z,37.73
2023-02-12T11:19:05.196Z,38.17
2023-02-12T11:21:36.424Z,36.53
2023-02-12T11:24:28.685Z,33.63
2023-02-12T11:27:14.191Z,30.70
2023-02-12T11:29:42.891Z,38.87
2023-02-12T11:32:17.317Z,34.17
2023-02-12T11:34:45.195Z,32.03
2023-02-12T11:37:19.247Z,33.40
2023-02-12T11:39:49.330Z,29.33
2023-02-12T11:42:19.783Z,30.77
2023-02-12T11:44:51.236Z,31.30
2023-02-12T11:47:22.636Z,31.97
2023-02-12T11:49:53.039Z,30.23
2023-02-12T11:52:24.969Z,31.13
2023-02-12T11:54:54.911Z,28.17
2023-02-12T11:57:41.646Z,27.67
2023-02-12T12:00:16.793Z,31.00
2023-02-12T12:02:57.012Z,28.47
2023-02-12T12:05:35.039Z,33.83
2023-02-12T12:08:12.652Z,32.60
2023-02-12T12:10:45.068Z,33.27
2023-02-12T12:13:17.274Z,35.17
2023-02-12T12:16:06.618Z,36.87
2023-02-12T12:18:57.431Z,34.37
2023-02-12T12:21:31.796Z,29.27
2023-02-12T12:24:06.498Z,32.10
2023-02-12T12:26:36.223Z,30.00
2023-02-12T12:29:11.984Z,34.33
2023-02-12T12:31:43.746Z,32.90
2023-02-12T12:34:14.746Z,33.47
2023-02-12T12:37:11.918Z,30.30
2023-02-12T12:39:53.008Z,26.90
2023-02-12T12:42:49.567Z,26.17
2023-02-12T12:45:33.481Z,24.57
2023-02-12T12:48:17.321Z,23.70
2023-02-12T12:51:02.831Z,28.13
2023-02-12T12:53:42.608Z,23.27
2023-02-12T12:56:51.950Z,21.10
2023-02-12T13:00:18.564Z,22.87
2023-02-12T13:03:24.770Z,19.57
2023-02-12T13:06:07.453Z,19.67
2023-02-12T13:08:48.449Z,18.30
2023-02-12T13:11:32.280Z,13.60
2023-02-12T13:14:09.750Z,16.57
2023-02-12T13:16:46.463Z,14.80
2023-02-12T13:19:20.730Z,13.10
2023-02-12T13:21:56.047Z,9.60
2023-02-12T13:24:30.548Z,11.50
2023-02-12T13:27:02.193Z,13.57
2023-02-12T13:29:34.173Z,12.37
2023-02-12T13:32:06.639Z,12.97
2023-02-12T13:34:36.972Z,8.70
2023-02-12T13:37:10.154Z,9.90
2023-02-12T13:39:41.684Z,10.90
2023-02-12T13:42:24.996Z,10.07
2023-02-12T13:44:59.815Z,9.80
2023-02-12T13:47:36.416Z,9.80
2023-02-12T13:50:12.921Z,9.73
2023-02-12T13:52:49.894Z,8.73
2023-02-12T13:55:26.588Z,6.73
2023-02-12T13:58:32.178Z,6.60
2023-02-12T14:01:04.308Z,6.90
2023-02-12T14:03:33.330Z,6.90
2023-02-12T14:06:13.803Z,7.30
2023-02-12T14:08:44.005Z,8.27
2023-02-12T14:11:16.095Z,9.13
2023-02-12T14:13:53.313Z,8.27
2023-02-12T14:16:41.505Z,8.53
2023-02-12T14:19:38.195Z,10.20
2023-02-12T14:22:13.369Z,8.13
2023-02-12T14:24:52.750Z,8.03
2023-02-12T14:27:42.941Z,9.57
2023-02-12T14:30:27.511Z,7.53
2023-02-12T14:33:25.086Z,7.67
2023-02-12T14:36:19.633Z,8.57
2023-02-12T14:39:06.426Z,9.43
2023-02-12T14:41:39.886Z,8.17
2023-02-12T14:44:45.501Z,9.03
2023-02-12T14:47:17.264Z,8.50
2023-02-12T14:49:49.718Z,7.87
2023-02-12T14:52:21.748Z,8.03
2023-02-12T14:54:52.104Z,8.17
2023-02-12T14:57:26.871Z,7.27
2023-02-12T14:59:57.983Z,9.37
2023-02-12T15:02:28.611Z,8.17
2023-02-12T15:05:03.350Z,7.60
2023-02-12T15:07:36.741Z,8.17
2023-02-12T15:10:13.842Z,8.87
2023-02-12T15:12:46.997Z,8.53
2023-02-12T15:15:21.040Z,6.77
2023-02-12T15:17:59.045Z,8.33
2023-02-12T15:20:34.260Z,7.33
2023-02-12T15:23:02.968Z,10.03
2023-02-12T15:25:32.679Z,7.47
2023-02-12T15:28:03.656Z,7.30
2023-02-12T15:30:34.887Z,11.40
2023-02-12T15:33:06.328Z,11.10
2023-02-12T15:35:37.772Z,8.20
2023-02-12T15:38:07.509Z,7.53
2023-02-12T15:40:35.728Z,8.70
2023-02-12T15:43:05.731Z,7.70
2023-02-12T15:45:36.493Z,10.43
2023-02-12T15:48:14.069Z,8.30
2023-02-12T15:50:54.441Z,8.93
2023-02-12T15:53:25.214Z,7.73
2023-02-12T15:55:53.607Z,6.97
2023-02-12T15:58:24.275Z,8.53
2023-02-12T16:00:53.430Z,6.10
2023-02-12T16:03:23.520Z,7.30
2023-02-12T16:05:55.488Z,8.87
2023-02-12T16:08:24.623Z,6.20
2023-02-12T16:10:55.627Z,6.47
2023-02-12T16:13:30.076Z,9.37
2023-02-12T16:16:19.464Z,6.90
2023-02-12T16:18:47.612Z,11.70
2023-02-12T16:21:20.128Z,9.17
2023-02-12T16:23:52.551Z,8.73
2023-02-12T16:26:23.330Z,10.67
2023-02-12T16:28:54.623Z,8.83
2023-02-12T16:31:22.818Z,9.77
2023-02-12T16:33:53.337Z,10.60
2023-02-12T16:36:32.669Z,13.23
2023-02-12T16:39:03.123Z,11.00
2023-02-12T16:41:33.055Z,13.20
2023-02-12T16:44:25.643Z,13.83
2023-02-12T16:46:55.811Z,12.70
2023-02-12T16:49:26.068Z,11.90
2023-02-12T16:52:15.504Z,10.77
2023-02-12T16:54:43.446Z,12.47
2023-02-12T16:57:12.714Z,11.57
2023-02-12T16:59:44.337Z,11.20
2023-02-12T17:02:15.111Z,11.93
2023-02-12T17:04:43.372Z,11.40
2023-02-12T17:07:19.602Z,13.47
2023-02-12T17:09:47.716Z,13.23
2023-02-12T17:12:15.775Z,15.87
2023-02-12T17:14:43.621Z,14.83
2023-02-12T17:17:11.497Z,17.57
2023-02-12T17:19:39.527Z,14.27
2023-02-12T17:22:09.001Z,13.73
2023-02-12T17:24:38.314Z,15.03
2023-02-12T17:27:07.811Z,15.93
2023-02-12T17:29:35.660Z,15.87
2023-02-12T17:32:03.571Z,15.40
2023-02-12T17:34:39.735Z,16.10
2023-02-12T17:37:14.687Z,19.20
2023-02-12T17:39:44.001Z,19.67
2023-02-12T17:42:12.127Z,21.17
2023-02-12T17:44:41.492Z,26.80
2023-02-12T17:47:10.573Z,45.50
2023-02-12T17:49:39.775Z,28.93
2023-02-12T17:52:07.712Z,30.00
2023-02-12T17:54:35.676Z,31.70
2023-02-12T17:57:05.023Z,26.17
2023-02-12T17:59:32.918Z,31.33
2023-02-12T18:02:00.814Z,31.73
2023-02-12T18:04:28.609Z,33.77
2023-02-12T18:06:57.788Z,31.67
2023-02-12T18:09:25.601Z,28.43
2023-02-12T18:11:53.565Z,32.73
2023-02-12T18:14:22.777Z,29.40
2023-02-12T18:16:50.758Z,34.47
2023-02-12T18:19:18.704Z,33.23
2023-02-12T18:21:47.640Z,36.27
2023-02-12T18:24:15.474Z,38.10
2023-02-12T18:26:43.472Z,31.57
2023-02-12T18:29:11.465Z,34.40
2023-02-12T18:31:40.821Z,36.57
2023-02-12T18:34:08.888Z,29.37
2023-02-12T18:36:36.817Z,33.07
2023-02-12T18:39:05.358Z,29.87
2023-02-12T18:41:35.674Z,34.93
2023-02-12T18:44:05.233Z,33.40
2023-02-12T18:46:33.641Z,33.23
2023-02-12T18:49:03.829Z,34.43
2023-02-12T18:51:36.386Z,30.13
2023-02-12T18:54:08.258Z,27.57
2023-02-12T18:56:39.939Z,32.93
2023-02-12T18:59:09.006Z,33.90
2023-02-12T19:01:37.515Z,28.83
2023-02-12T19:04:10.625Z,29.70
2023-02-12T19:06:41.028Z,30.73
2023-02-12T19:09:10.461Z,27.27
2023-02-12T19:11:38.441Z,33.13
2023-02-12T19:14:06.888Z,29.87
2023-02-12T19:16:34.831Z,28.97
2023-02-12T19:19:03.567Z,33.50
2023-02-12T19:21:32.736Z,35.67
2023-02-12T19:24:02.347Z,31.53
2023-02-12T19:26:31.292Z,33.27
2023-02-12T19:29:00.122Z,56.53
2023-02-12T19:31:29.922Z,81.57
2023-02-12T19:34:00.233Z,46.63
2023-02-12T19:36:32.600Z,52.97
2023-02-12T19:39:02.456Z,50.53
2023-02-12T19:41:31.373Z,37.80
2023-02-12T19:44:01.153Z,65.40
2023-02-12T19:46:30.995Z,43.70
2023-02-12T19:49:01.466Z,35.67
2023-02-12T19:51:30.572Z,53.27
2023-02-12T19:54:02.992Z,42.53
2023-02-12T19:56:31.140Z,38.47
2023-02-12T19:58:59.520Z,58.47
2023-02-12T20:01:28.615Z,53.20
2023-02-12T20:03:58.202Z,49.97
2023-02-12T20:06:28.592Z,41.40
2023-02-12T20:08:56.797Z,40.00
2023-02-12T20:11:28.727Z,43.07
2023-02-12T20:13:56.967Z,52.33
2023-02-12T20:16:31.066Z,43.83
2023-02-12T20:19:01.775Z,44.83
2023-02-12T20:21:30.479Z,47.87
2023-02-12T20:23:59.153Z,35.17
2023-02-12T20:26:30.014Z,43.33
2023-02-12T20:28:58.145Z,36.90
2023-02-12T20:31:28.334Z,36.93
2023-02-12T20:33:57.718Z,35.83
2023-02-12T20:36:26.283Z,37.50
2023-02-12T20:38:56.707Z,31.83
2023-02-12T20:41:25.239Z,44.27
2023-02-12T20:43:54.856Z,68.40
2023-02-12T20:46:25.103Z,44.77
2023-02-12T20:48:54.141Z,40.30
2023-02-12T20:51:23.846Z,38.20
2023-02-12T20:53:52.794Z,41.07
2023-02-12T20:56:23.671Z,36.47
2023-02-12T20:58:52.514Z,34.90
2023-02-12T21:01:23.736Z,38.70
2023-02-12T21:03:55.209Z,38.83
2023-02-12T21:06:25.105Z,38.87
2023-02-12T21:08:53.030Z,37.40
2023-02-12T21:11:23.241Z,37.53
2023-02-12T21:13:59.182Z,35.30
2023-02-12T21:16:33.851Z,35.17
2023-02-12T21:19:02.366Z,32.43
2023-02-12T21:21:31.784Z,36.27
2023-02-12T21:24:01.401Z,35.73
2023-02-12T21:26:31.088Z,36.07
2023-02-12T21:29:00.580Z,34.23
2023-02-12T21:31:31.486Z,36.73
2023-02-12T21:34:00.934Z,34.47
2023-02-12T21:36:30.862Z,33.83
2023-02-12T21:38:59.028Z,33.20
2023-02-12T21:41:28.775Z,32.90
2023-02-12T21:43:59.162Z,33.43
2023-02-12T21:46:27.687Z,35.00
2023-02-12T21:49:00.187Z,36.97
2023-02-12T21:51:30.228Z,32.30
2023-02-12T21:54:00.384Z,32.80
2023-02-12T21:56:29.270Z,34.27
2023-02-12T21:58:58.674Z,29.13
2023-02-12T22:01:29.621Z,33.23
2023-02-12T22:04:01.809Z,39.30
2023-02-12T22:06:30.113Z,38.37
2023-02-12T22:09:02.350Z,34.87
2023-02-12T22:11:30.439Z,39.30
2023-02-12T22:13:58.245Z,34.40
2023-02-12T22:16:27.998Z,39.27
2023-02-12T22:18:59.200Z,37.17
2023-02-12T22:21:30.165Z,39.27
2023-02-12T22:23:59.499Z,34.57
2023-02-12T22:26:29.929Z,39.73
2023-02-12T22:29:00.111Z,39.37
2023-02-12T22:31:31.230Z,36.13
2023-02-12T22:34:01.180Z,38.60
2023-02-12T22:36:30.611Z,38.43
2023-02-12T22:39:01.410Z,38.27
2023-02-12T22:41:29.624Z,37.80
2023-02-12T22:44:00.157Z,37.93
2023-02-12T22:46:28.431Z,37.53
2023-02-12T22:48:56.219Z,41.40
2023-02-12T22:51:26.601Z,37.83
2023-02-12T22:53:57.251Z,42.00
2023-02-12T22:56:25.567Z,36.43
2023-02-12T22:58:56.013Z,41.70
2023-02-12T23:01:24.686Z,39.23
2023-02-12T23:03:53.103Z,42.20
2023-02-12T23:06:22.802Z,39.60
2023-02-12T23:08:52.358Z,44.53
2023-02-12T23:11:24.270Z,39.10
2023-02-12T23:13:52.483Z,46.40
2023-02-12T23:16:20.558Z,46.10
2023-02-12T23:18:48.978Z,43.07
2023-02-12T23:21:16.910Z,37.27
2023-02-12T23:23:44.778Z,38.60
2023-02-12T23:26:12.621Z,41.80
2023-02-12T23:28:41.864Z,42.10
2023-02-12T23:31:09.953Z,41.33
2023-02-12T23:33:37.985Z,37.90
2023-02-12T23:36:06.278Z,38.87
2023-02-12T23:38:34.253Z,39.50
2023-02-12T23:41:02.074Z,38.80
2023-02-12T23:43:29.961Z,37.43
2023-02-12T23:45:59.133Z,34.10
2023-02-12T23:48:27.068Z,34.87
2023-02-12T23:50:55.365Z,39.40
2023-02-12T23:53:23.599Z,37.10
2023-02-12T23:55:51.935Z,37.80
2023-02-12T23:58:19.919Z,39.33
